Etusivu
METAR-TAF:

METAR-TAF

Lentoasemat :

Capital City Airport

Frankfort, Kentucky, Yhdysvallat

Leveyspiiri: 38-11-05N, Pituuspiiri: 084-54-12W, korkeus merenpinnasta: 245 m

Tämänhetkinen sää

Tämä raportti tehtiin 44 minuuttia sitten, kello 16.53 UTC
Tuuli 5 kn eri suunnista
Lämpötila 6°C
Kosteus 33%
Ilmanpaine 1030 hPa
Näkyvyys: 16.1 km
selkeää

METAR: KFFT 221653Z AUTO VRB05KT 10SM CLR 06/M09 A3043 RMK AO2 SLP313 T00561094

Aika: 12:37 (17:37 UTC)


TAF: puuttuu

Säähavainnot ja -ennusteet yli 4000 lentoasemalta (METAR- ja TAF-raportit).

Käytössä olevat sääasemat on merkitty karttaan keltaisilla ja punaisilla pisteillä.

Aseta hiiri pisteen päälle nähdäksesi sääaseman nimen.

Klikkaa sitten nähdäksesi säähavainnot ja -ennusteet.

Kartan vaihtaminen: klikkaa mustalla rastilla varustettuja vihreitä pisteitä, niin voit zoomata sisään; viivalla varustettua vihreää pistettä, niin voit zoomata ulos tai vihreitä nuolia, niin pääset viereisille kartoille.


METAR-TAF: